createdAt,value
2017-06-18T00:00:22.699Z,59.31
2017-06-18T00:02:46.884Z,59.6
2017-06-18T00:05:11.107Z,60.25
2017-06-18T00:07:35.323Z,60.16
2017-06-18T00:09:51.094Z,60.44
2017-06-18T00:12:06.884Z,61.22
2017-06-18T00:14:31.064Z,61.41
2017-06-18T00:16:55.296Z,61.99
2017-06-18T00:19:19.517Z,61.8
2017-06-18T00:21:43.711Z,62.34
2017-06-18T00:24:07.919Z,63.12
2017-06-18T00:26:32.113Z,62.34
2017-06-18T00:28:56.267Z,61.96
2017-06-18T00:31:20.456Z,61.86
2017-06-18T00:33:44.647Z,62.15
2017-06-18T00:36:08.845Z,62.54
2017-06-18T00:38:33.017Z,62.44
2017-06-18T00:40:57.173Z,62.92
2017-06-18T00:43:21.327Z,62.34
2017-06-18T00:45:37.025Z,63.57
2017-06-18T00:47:38.419Z,63.76
2017-06-18T00:49:54.183Z,64.24
2017-06-18T00:52:10.892Z,62.99
2017-06-18T00:54:03.840Z,63.18
2017-06-18T00:56:28.029Z,63.09
2017-06-18T00:58:43.758Z,64.21
2017-06-18T01:01:07.895Z,63.95
2017-06-18T01:03:23.617Z,63.28
2017-06-18T01:05:47.760Z,62.79
2017-06-18T01:07:55.036Z,62.89
2017-06-18T01:10:02.315Z,64.4
2017-06-18T01:12:26.447Z,64.5
2017-06-18T01:14:50.538Z,64.21
2017-06-18T01:17:14.678Z,64.5
2017-06-18T01:19:38.824Z,64.31
2017-06-18T01:21:54.465Z,64.21
2017-06-18T01:24:18.601Z,64.4
2017-06-18T01:26:34.263Z,64.4
2017-06-18T01:28:58.380Z,63.76
2017-06-18T01:31:22.513Z,64.05
2017-06-18T01:33:46.637Z,64.05
2017-06-18T01:36:10.753Z,63.67
2017-06-18T01:38:34.881Z,64.43
2017-06-18T01:40:59.037Z,64.59
2017-06-18T01:43:23.189Z,65.66
2017-06-18T01:45:38.893Z,65.95
2017-06-18T01:48:03.047Z,65.27
2017-06-18T01:50:12.980Z,65.27
2017-06-18T01:52:37.135Z,66.49
2017-06-18T01:54:47.798Z,65.85
2017-06-18T01:57:03.518Z,66.78
2017-06-18T01:59:27.620Z,66.24
2017-06-18T02:01:51.727Z,65.47
2017-06-18T02:04:15.806Z,65.75
2017-06-18T02:06:25.745Z,66.04
2017-06-18T02:08:49.889Z,66.59
2017-06-18T02:10:57.127Z,66.62
2017-06-18T02:13:12.778Z,67.16
2017-06-18T02:15:36.883Z,67
2017-06-18T02:18:01.005Z,66.52
2017-06-18T02:20:16.683Z,67.26
2017-06-18T02:22:40.746Z,66.72
2017-06-18T02:25:04.838Z,66.04
2017-06-18T02:27:28.928Z,65.27
2017-06-18T02:29:44.572Z,65.37
2017-06-18T02:32:08.636Z,66.14
2017-06-18T02:34:32.716Z,65.5
2017-06-18T02:36:56.788Z,64.24
2017-06-18T02:39:20.858Z,65.56
2017-06-18T02:41:44.941Z,65.17
2017-06-18T02:44:00.580Z,65.47
2017-06-18T02:46:24.673Z,65.85
2017-06-18T02:48:48.788Z,65.95
2017-06-18T02:51:12.863Z,66.62
2017-06-18T02:53:36.982Z,66.17
2017-06-18T02:56:01.087Z,65.69
2017-06-18T02:58:16.774Z,65.4
2017-06-18T03:00:40.929Z,66.08
2017-06-18T03:03:05.034Z,66.56
2017-06-18T03:05:29.166Z,65.88
2017-06-18T03:07:53.319Z,65.98
2017-06-18T03:09:54.714Z,66.2
2017-06-18T03:12:18.861Z,66.46
2017-06-18T03:14:43.057Z,66.36
2017-06-18T03:17:07.184Z,66.36
2017-06-18T03:19:31.301Z,66.66
2017-06-18T03:21:46.926Z,66.01
2017-06-18T03:24:02.618Z,65.98
2017-06-18T03:26:26.742Z,66.66
2017-06-18T03:28:50.864Z,66.85
2017-06-18T03:31:15.007Z,66.66
2017-06-18T03:33:30.689Z,67.23
2017-06-18T03:35:54.782Z,67.78
2017-06-18T03:38:18.884Z,67.78
2017-06-18T03:40:42.999Z,67.49
2017-06-18T03:42:58.681Z,67.68
2017-06-18T03:45:22.779Z,67.49
2017-06-18T03:47:38.450Z,67.68
2017-06-18T03:50:02.542Z,68.07
2017-06-18T03:52:18.194Z,67.78
2017-06-18T03:54:42.274Z,67.23
2017-06-18T03:56:53.199Z,67.3
2017-06-18T03:59:17.339Z,67.2
2017-06-18T04:01:27.231Z,67.1
2017-06-18T04:03:51.333Z,67.4
2017-06-18T04:06:15.438Z,68.35
2017-06-18T04:08:31.087Z,68.16
2017-06-18T04:10:55.199Z,67.88
2017-06-18T04:13:10.861Z,68.65
2017-06-18T04:15:34.973Z,68.8
2017-06-18T04:17:50.636Z,67.97
2017-06-18T04:20:14.722Z,68.45
2017-06-18T04:22:30.346Z,68.61
2017-06-18T04:24:54.441Z,67.97
2017-06-18T04:27:18.526Z,68.42
2017-06-18T04:29:42.619Z,68.32
2017-06-18T04:32:06.714Z,68.55
2017-06-18T04:34:30.813Z,68.45
2017-06-18T04:36:23.775Z,67.49
2017-06-18T04:38:47.887Z,67.58
2017-06-18T04:41:12.006Z,67.78
2017-06-18T04:43:36.115Z,67.62
2017-06-18T04:46:00.226Z,67.3
2017-06-18T04:48:24.316Z,67.58
2017-06-18T04:50:48.400Z,67.62
2017-06-18T04:53:12.442Z,67.71
2017-06-18T04:55:36.559Z,66.85
2017-06-18T04:58:00.688Z,66.85
2017-06-18T05:00:24.806Z,66.85
2017-06-18T05:02:48.866Z,66.75
2017-06-18T05:05:12.976Z,67.3
2017-06-18T05:07:37.089Z,66.75
2017-06-18T05:10:01.202Z,66.01
2017-06-18T05:12:25.360Z,66.4
2017-06-18T05:14:49.510Z,65.05
2017-06-18T05:17:13.646Z,65.2
2017-06-18T05:19:37.746Z,65.5
2017-06-18T05:21:53.420Z,66.08
2017-06-18T05:24:09.111Z,64.72
2017-06-18T05:26:33.239Z,65.85
2017-06-18T05:28:57.308Z,65.5
2017-06-18T05:31:21.436Z,66.52
2017-06-18T05:33:45.520Z,65.11
2017-06-18T05:36:09.590Z,66.62
2017-06-18T05:38:33.683Z,67.55
2017-06-18T05:40:49.354Z,66.82
2017-06-18T05:43:13.453Z,66.43
2017-06-18T05:45:37.557Z,67.3
2017-06-18T05:48:01.705Z,66.62
2017-06-18T05:50:25.808Z,66.85
2017-06-18T05:52:49.955Z,66.56
2017-06-18T05:54:59.896Z,65.43
2017-06-18T05:57:24.092Z,64.4
2017-06-18T05:59:48.250Z,64.76
2017-06-18T06:02:12.421Z,65.24
2017-06-18T06:04:36.575Z,64.28
2017-06-18T06:07:00.730Z,64.56
2017-06-18T06:09:24.893Z,64.56
2017-06-18T06:11:32.180Z,65.37
2017-06-18T06:13:47.909Z,64.56
2017-06-18T06:16:03.643Z,64.18
2017-06-18T06:18:27.830Z,63.4
2017-06-18T06:20:52.004Z,62.76
2017-06-18T06:23:16.199Z,64.11
2017-06-18T06:25:40.424Z,62.21
2017-06-18T06:27:56.207Z,62.5
2017-06-18T06:30:20.447Z,62.31
2017-06-18T06:32:44.722Z,61.73
2017-06-18T06:35:08.970Z,58.47
2017-06-18T06:37:24.844Z,54.99
2017-06-18T06:39:40.761Z,53.66
2017-06-18T06:42:05.189Z,50.7
2017-06-18T06:44:21.234Z,49
2017-06-18T06:46:45.771Z,50.21
2017-06-18T06:49:10.395Z,48.3
2017-06-18T06:51:35.075Z,46.32
2017-06-18T06:53:36.728Z,44.32
2017-06-18T06:56:01.556Z,44.71
2017-06-18T06:58:26.431Z,43.57
2017-06-18T07:00:42.847Z,40.14
2017-06-18T07:02:59.322Z,40.53
2017-06-18T07:05:15.906Z,39.69
2017-06-18T07:07:15.512Z,37.47
2017-06-18T07:09:32.153Z,37.18
2017-06-18T07:11:57.369Z,34.95
2017-06-18T07:14:22.605Z,33.77
2017-06-18T07:16:39.384Z,30.97
2017-06-18T07:18:49.695Z,29.44
2017-06-18T07:21:15.097Z,29.13
2017-06-18T07:23:17.270Z,31.82
2017-06-18T07:25:42.641Z,33.69
2017-06-18T07:28:08.047Z,32.28
2017-06-18T07:30:33.420Z,35.4
2017-06-18T07:32:50.541Z,36.46
2017-06-18T07:35:15.913Z,31.99
2017-06-18T07:37:41.277Z,33.14
2017-06-18T07:40:06.651Z,32.06
2017-06-18T07:42:32.012Z,31.3
2017-06-18T07:44:33.736Z,33.1
2017-06-18T07:46:59.236Z,33.61
2017-06-18T07:49:16.156Z,33.2
2017-06-18T07:51:24.586Z,33.97
2017-06-18T07:53:50.045Z,35.03
2017-06-18T07:56:06.942Z,33.9
2017-06-18T07:58:23.904Z,33.89
2017-06-18T08:00:32.351Z,34.14
2017-06-18T08:02:57.831Z,37.38
2017-06-18T08:05:23.325Z,34.91
2017-06-18T08:07:25.565Z,33.29
2017-06-18T08:09:51.134Z,33.58
2017-06-18T08:12:08.198Z,31.97
2017-06-18T08:14:33.724Z,31.7
2017-06-18T08:16:59.296Z,31.77
2017-06-18T08:19:16.339Z,33.77
2017-06-18T08:21:41.884Z,31.2
2017-06-18T08:23:58.792Z,29.44
2017-06-18T08:26:15.780Z,34.31
2017-06-18T08:28:41.275Z,30.71
2017-06-18T08:31:06.771Z,30.18
2017-06-18T08:33:32.242Z,32.2
2017-06-18T08:35:57.748Z,29.82
2017-06-18T08:38:23.228Z,31.58
2017-06-18T08:40:48.704Z,35.09
2017-06-18T08:43:05.579Z,32.64
2017-06-18T08:45:13.946Z,30.08
2017-06-18T08:47:30.909Z,29.77
2017-06-18T08:49:56.399Z,30.82
2017-06-18T08:52:21.887Z,32.99
2017-06-18T08:54:32.265Z,32.74
2017-06-18T08:56:42.608Z,31.3
2017-06-18T08:59:08.146Z,27.97
2017-06-18T09:01:33.653Z,32.07
2017-06-18T09:03:59.135Z,29.2
2017-06-18T09:06:09.488Z,28.74
2017-06-18T09:08:35.040Z,27.33
2017-06-18T09:10:52.044Z,28.58
2017-06-18T09:13:17.578Z,28.14
2017-06-18T09:15:43.141Z,27.34
2017-06-18T09:18:08.669Z,30.4
2017-06-18T09:20:10.384Z,33.36
2017-06-18T09:22:35.850Z,35.46
2017-06-18T09:25:01.208Z,29.64
2017-06-18T09:27:18.065Z,27.92
2017-06-18T09:29:28.396Z,28.77
2017-06-18T09:31:45.393Z,28.96
2017-06-18T09:34:10.816Z,31.63
2017-06-18T09:36:27.752Z,30.47
2017-06-18T09:38:53.203Z,31.73
2017-06-18T09:41:18.618Z,28.57
2017-06-18T09:43:44.041Z,28.93
2017-06-18T09:46:00.970Z,27.97
2017-06-18T09:48:17.813Z,31.44
2017-06-18T09:50:43.150Z,34.39
2017-06-18T09:54:52.922Z,31.99
2017-06-18T09:57:18.208Z,31.52
2017-06-18T09:59:43.403Z,31
2017-06-18T10:02:08.615Z,32.04
2017-06-18T10:04:33.775Z,32.82
2017-06-18T10:06:50.439Z,32.03
2017-06-18T10:09:15.636Z,33.01
2017-06-18T10:11:40.812Z,35.28
2017-06-18T10:13:57.454Z,33.95
2017-06-18T10:16:14.052Z,35.85
2017-06-18T10:18:39.149Z,33.28
2017-06-18T10:21:04.239Z,32.06
2017-06-18T10:23:29.340Z,33.3
2017-06-18T10:25:54.404Z,36.98
2017-06-18T10:28:10.964Z,35.59
2017-06-18T10:30:35.983Z,35.85
2017-06-18T10:33:00.992Z,34.89
2017-06-18T10:35:27.991Z,34.89
2017-06-18T10:37:52.977Z,34.21
2017-06-18T10:40:17.939Z,35.71
2017-06-18T10:42:34.343Z,34.59
2017-06-18T10:44:59.286Z,33.44
2017-06-18T10:47:15.695Z,35.23
2017-06-18T10:49:40.612Z,36.65
2017-06-18T10:52:05.498Z,36.65
2017-06-18T10:54:30.388Z,35.33
2017-06-18T10:56:46.760Z,35.71
2017-06-18T10:59:11.615Z,35.91
2017-06-18T11:01:27.982Z,36.47
2017-06-18T11:03:52.814Z,33.8
2017-06-18T11:06:17.647Z,34.72
2017-06-18T11:08:25.491Z,35.49
2017-06-18T11:10:41.830Z,35.8
2017-06-18T11:13:06.604Z,36.24
2017-06-18T11:15:31.373Z,35.02
2017-06-18T11:17:56.164Z,35.8
2017-06-18T11:20:12.453Z,35.31
2017-06-18T11:22:37.289Z,35.13
2017-06-18T11:25:02.048Z,33.92
2017-06-18T11:27:26.815Z,34.9
2017-06-18T11:29:51.621Z,35.97
2017-06-18T11:32:16.421Z,34.45
2017-06-18T11:34:17.986Z,34.25
2017-06-18T11:36:42.784Z,33.48
2017-06-18T11:39:07.588Z,33.88
2017-06-18T11:41:32.346Z,33.09
2017-06-18T11:43:33.894Z,33.49
2017-06-18T11:45:58.712Z,33.48
2017-06-18T11:48:15.037Z,34.55
2017-06-18T11:50:39.789Z,35.66
2017-06-18T11:52:56.055Z,35.19
2017-06-18T11:55:20.789Z,35.58
2017-06-18T11:57:45.543Z,35.19
2017-06-18T12:00:10.247Z,35.39
2017-06-18T12:02:35.000Z,35
2017-06-18T12:04:42.743Z,34.82
2017-06-18T12:07:07.523Z,35.78
2017-06-18T12:09:32.284Z,35.11
2017-06-18T12:11:48.562Z,34.72
2017-06-18T12:14:13.284Z,34.72
2017-06-18T12:16:38.064Z,35.49
2017-06-18T12:18:54.306Z,35.29
2017-06-18T12:21:19.060Z,34.22
2017-06-18T12:23:43.837Z,33.77
2017-06-18T12:26:08.585Z,34.43
2017-06-18T12:28:33.332Z,35.11
2017-06-18T12:30:58.050Z,34.05
2017-06-18T12:33:22.762Z,35.39
2017-06-18T12:35:47.451Z,34.84
2017-06-18T12:38:12.153Z,34.43
2017-06-18T12:40:36.872Z,34.06
2017-06-18T12:42:38.423Z,33.96
2017-06-18T12:45:03.171Z,34.63
2017-06-18T12:47:27.932Z,35.02
2017-06-18T12:49:44.194Z,34.82
2017-06-18T12:52:00.442Z,34.05
2017-06-18T12:54:25.165Z,34.06
2017-06-18T12:56:49.914Z,33.77
2017-06-18T12:59:14.652Z,33.29
2017-06-18T13:01:24.783Z,33.88
2017-06-18T13:03:49.591Z,33.77
2017-06-18T13:06:05.872Z,33.01
2017-06-18T13:07:58.942Z,32.21
2017-06-18T13:10:15.283Z,33.73
2017-06-18T13:12:23.113Z,33.56
2017-06-18T13:14:47.851Z,34.5
2017-06-18T13:17:12.603Z,33.77
2017-06-18T13:19:28.880Z,33.28
2017-06-18T13:21:45.151Z,32.91
2017-06-18T13:24:09.927Z,32.81
2017-06-18T13:26:34.717Z,33.38
2017-06-18T13:28:51.001Z,33.77
2017-06-18T13:31:15.791Z,33.39
2017-06-18T13:33:32.091Z,33.48
2017-06-18T13:35:56.867Z,33.41
2017-06-18T13:38:21.580Z,32.84
2017-06-18T13:40:46.349Z,33.88
2017-06-18T13:43:11.126Z,33.2
2017-06-18T13:45:27.371Z,33.41
2017-06-18T13:47:52.117Z,33.39
2017-06-18T13:50:16.882Z,33.01
2017-06-18T13:52:27.791Z,32.63
2017-06-18T13:54:29.826Z,31.87
2017-06-18T13:56:54.631Z,31.79
2017-06-18T13:59:19.429Z,32.16
2017-06-18T14:01:44.241Z,33.2
2017-06-18T14:04:09.047Z,33.18
2017-06-18T14:06:33.834Z,34.16
2017-06-18T14:08:58.640Z,33.41
2017-06-18T14:11:23.422Z,33.86
2017-06-18T14:13:48.215Z,34.72
2017-06-18T14:16:12.991Z,33.96
2017-06-18T14:18:37.693Z,33.98
2017-06-18T14:20:53.985Z,33.41
2017-06-18T14:23:18.759Z,33.86
2017-06-18T14:25:43.539Z,34.08
2017-06-18T14:27:45.574Z,33.39
2017-06-18T14:30:10.392Z,33.41
2017-06-18T14:32:35.143Z,33.38
2017-06-18T14:34:59.933Z,32.81
2017-06-18T14:37:16.215Z,33.02
2017-06-18T14:39:40.996Z,33.2
2017-06-18T14:42:05.727Z,33.28
2017-06-18T14:44:22.040Z,33.78
2017-06-18T14:46:46.815Z,32.63
2017-06-18T14:49:03.114Z,33.02
2017-06-18T14:51:27.877Z,33.48
2017-06-18T14:53:52.661Z,33.86
2017-06-18T14:56:17.433Z,33.88
2017-06-18T14:58:42.214Z,33.98
2017-06-18T15:01:06.962Z,33.77
2017-06-18T15:03:31.671Z,33.78
2017-06-18T15:05:47.937Z,33.96
2017-06-18T15:08:12.668Z,34.33
2017-06-18T15:10:38.432Z,34.61
2017-06-18T15:12:54.732Z,33.96
2017-06-18T15:15:10.977Z,33.96
2017-06-18T15:17:35.723Z,33.49
2017-06-18T15:19:43.459Z,32.82
2017-06-18T15:21:59.737Z,32.91
2017-06-18T15:24:24.511Z,33.96
2017-06-18T15:26:49.217Z,33.78
2017-06-18T15:29:13.980Z,33.48
2017-06-18T15:31:38.718Z,33.2
2017-06-18T15:34:03.465Z,33.01
2017-06-18T15:36:28.199Z,33.88
2017-06-18T15:38:44.472Z,33.41
2017-06-18T15:41:09.223Z,33.78
2017-06-18T15:43:33.969Z,33.96
2017-06-18T15:45:58.660Z,33.49
2017-06-18T15:48:14.926Z,34.06
2017-06-18T15:50:07.987Z,33.49
2017-06-18T15:52:32.700Z,33.41
2017-06-18T15:54:57.499Z,33.78
2017-06-18T15:57:22.299Z,33.39
2017-06-18T15:59:47.088Z,33.39
2017-06-18T16:02:11.882Z,33.39
2017-06-18T16:04:36.648Z,33.39
2017-06-18T16:06:52.948Z,33.59
2017-06-18T16:09:17.717Z,34.06
2017-06-18T16:13:09.872Z,33.58
2017-06-18T16:15:34.640Z,33.39
2017-06-18T16:17:59.375Z,32.91
2017-06-18T16:20:24.172Z,33.88
2017-06-18T16:22:48.972Z,33.77
2017-06-18T16:25:13.775Z,34.25
2017-06-18T16:27:30.095Z,33.96
2017-06-18T16:29:55.916Z,34.16
2017-06-18T16:32:12.234Z,33.29
2017-06-18T16:34:36.929Z,33.86
2017-06-18T16:36:38.962Z,33.59
2017-06-18T16:38:55.259Z,33.96
2017-06-18T16:41:11.555Z,33.49
2017-06-18T16:43:36.356Z,33.58
2017-06-18T16:45:52.651Z,34.53
2017-06-18T16:48:08.894Z,34.14
2017-06-18T16:50:33.656Z,34.06
2017-06-18T16:52:58.447Z,34.8
2017-06-18T16:55:23.178Z,35.02
2017-06-18T16:57:47.948Z,34.64
2017-06-18T17:00:12.670Z,34.63
2017-06-18T17:02:37.441Z,35.29
2017-06-18T17:04:53.764Z,35
2017-06-18T17:07:02.670Z,35.49
2017-06-18T17:09:27.470Z,35.19
2017-06-18T17:11:52.259Z,34.53
2017-06-18T17:14:16.972Z,35.21
2017-06-18T17:16:41.755Z,34.53
2017-06-18T17:19:06.551Z,34.45
2017-06-18T17:21:31.350Z,34.82
2017-06-18T17:23:56.051Z,34.94
2017-06-18T17:26:12.348Z,35.02
2017-06-18T17:28:28.657Z,35.02
2017-06-18T17:30:53.348Z,35.49
2017-06-18T17:33:09.532Z,35.31
2017-06-18T17:35:17.337Z,35.78
2017-06-18T17:37:42.042Z,35.97
2017-06-18T17:40:06.731Z,35.97
2017-06-18T17:42:31.415Z,36.34
2017-06-18T17:44:56.133Z,36.26
2017-06-18T17:47:20.816Z,35.97
2017-06-18T17:49:45.438Z,35.68
2017-06-18T17:52:10.213Z,35.78
2017-06-18T17:54:03.793Z,36.16
2017-06-18T17:56:14.351Z,35.88
2017-06-18T17:58:39.145Z,36.16
2017-06-18T18:01:03.795Z,35.97
2017-06-18T18:03:28.539Z,36.07
2017-06-18T18:05:30.572Z,36.16
2017-06-18T18:07:55.279Z,36.15
2017-06-18T18:10:11.492Z,36.24
2017-06-18T18:12:27.712Z,36.93
2017-06-18T18:14:52.497Z,36.73
2017-06-18T18:17:17.194Z,37.02
2017-06-18T18:19:41.889Z,37.51
2017-06-18T18:22:06.580Z,37.32
2017-06-18T18:24:31.233Z,37.98
2017-06-18T18:26:55.972Z,37.88
2017-06-18T18:29:20.671Z,37.88
2017-06-18T18:31:36.864Z,37.88
2017-06-18T18:34:01.560Z,37.59
2017-06-18T18:36:26.255Z,38.34
2017-06-18T18:38:42.389Z,37.49
2017-06-18T18:41:07.052Z,37.76
2017-06-18T18:43:23.171Z,38.37
2017-06-18T18:45:47.840Z,38.44
2017-06-18T18:48:12.439Z,38.46
2017-06-18T18:50:28.553Z,38.25
2017-06-18T18:52:39.130Z,38.73
2017-06-18T18:54:55.382Z,39.32
2017-06-18T18:57:11.584Z,39.32
2017-06-18T18:59:36.179Z,39.01
2017-06-18T19:02:00.885Z,40.26
2017-06-18T19:04:25.473Z,40.17
2017-06-18T19:06:50.087Z,40.26
2017-06-18T19:09:14.764Z,40.17
2017-06-18T19:11:39.366Z,40.75
2017-06-18T19:14:03.947Z,40.36
2017-06-18T19:16:28.647Z,40.95
2017-06-18T19:18:53.231Z,41.24
2017-06-18T19:21:17.761Z,41.53
2017-06-18T19:23:33.859Z,42.65
2017-06-18T19:25:58.420Z,42.86
2017-06-18T19:28:23.022Z,43.04
2017-06-18T19:30:47.541Z,43.04
2017-06-18T19:32:57.615Z,43.33
2017-06-18T19:35:22.254Z,43.52
2017-06-18T19:37:46.839Z,43.7
2017-06-18T19:40:11.339Z,45.05
2017-06-18T19:42:18.927Z,44.67
2017-06-18T19:46:10.667Z,44.86
2017-06-18T19:50:10.799Z,45.83
2017-06-18T19:54:12.099Z,46.19
2017-06-18T19:58:12.264Z,46.48
2017-06-18T20:00:14.317Z,46.87
2017-06-18T20:02:45.730Z,47.04
2017-06-18T20:04:55.749Z,47.24
2017-06-18T20:08:56.360Z,48.01
2017-06-18T20:11:20.811Z,48.3
2017-06-18T20:13:45.311Z,48.79
2017-06-18T20:16:10.110Z,48.76
2017-06-18T20:18:34.598Z,49.34
2017-06-18T20:20:44.642Z,49.15
2017-06-18T20:23:09.058Z,49.15
2017-06-18T20:25:33.423Z,49.54
2017-06-18T20:27:57.876Z,49.63
2017-06-18T20:30:22.231Z,50.09
2017-06-18T20:32:47.721Z,50.18
2017-06-18T20:35:12.217Z,50.09
2017-06-18T20:37:36.693Z,50.28
2017-06-18T20:40:01.009Z,50.67
2017-06-18T20:42:25.485Z,50.48
2017-06-18T20:44:41.470Z,49.8
2017-06-18T20:47:05.863Z,50.38
2017-06-18T20:49:07.825Z,50.65
2017-06-18T20:51:33.235Z,50.67
2017-06-18T20:53:57.626Z,50.55
2017-06-18T20:56:14.219Z,50.55
2017-06-18T20:58:38.628Z,50.74
2017-06-18T21:01:03.993Z,50.67
2017-06-18T21:03:28.412Z,51.51
2017-06-18T21:05:52.944Z,51.87
2017-06-18T21:08:17.810Z,52.17
2017-06-18T21:10:42.211Z,51.42
2017-06-18T21:13:06.596Z,51.71
2017-06-18T21:15:22.547Z,52.26
2017-06-18T21:17:46.789Z,52.26
2017-06-18T21:20:11.083Z,52.58
2017-06-18T21:22:35.563Z,52.48
2017-06-18T21:24:59.932Z,52.55
2017-06-18T21:27:15.820Z,52.84
2017-06-18T21:29:40.311Z,52.67
2017-06-18T21:31:42.461Z,52.55
2017-06-18T21:34:06.778Z,52.94
2017-06-18T21:36:31.408Z,53.03
2017-06-18T21:38:55.758Z,53.52
2017-06-18T21:41:20.146Z,53.13
2017-06-18T21:43:44.535Z,52.97
2017-06-18T21:46:00.644Z,52.84
2017-06-18T21:48:24.812Z,53.91
2017-06-18T21:50:49.090Z,52.94
2017-06-18T21:53:04.992Z,53.16
2017-06-18T21:55:20.775Z,52.87
2017-06-18T21:57:45.069Z,52.77
2017-06-18T21:59:46.996Z,53.35
2017-06-18T22:02:11.415Z,53.16
2017-06-18T22:04:35.710Z,53.83
2017-06-18T22:07:00.092Z,53.91
2017-06-18T22:09:15.981Z,54
2017-06-18T22:11:40.269Z,55.13
2017-06-18T22:14:04.654Z,54.65
2017-06-18T22:16:28.946Z,55.13
2017-06-18T22:18:44.826Z,54.87
2017-06-18T22:21:09.124Z,54.58
2017-06-18T22:23:11.065Z,54.97
2017-06-18T22:25:35.364Z,55.23
2017-06-18T22:27:59.649Z,54.65
2017-06-18T22:30:23.936Z,54.65
2017-06-18T22:32:48.214Z,54.87
2017-06-18T22:35:13.434Z,54.29
2017-06-18T22:37:37.724Z,54.19
2017-06-18T22:39:53.612Z,54.68
2017-06-18T22:41:55.530Z,55.13
2017-06-18T22:44:19.859Z,54.87
2017-06-18T22:46:21.753Z,54.68
2017-06-18T22:48:46.102Z,54.68
2017-06-18T22:51:10.392Z,54.68
2017-06-18T22:53:34.684Z,54.84
2017-06-18T22:55:59.989Z,55.33
2017-06-18T22:58:26.226Z,54.84
2017-06-18T23:00:51.540Z,54.75
2017-06-18T23:03:15.814Z,54.68
2017-06-18T23:05:40.116Z,55.04
2017-06-18T23:08:04.402Z,54.49
2017-06-18T23:10:20.243Z,55.23
2017-06-18T23:12:44.467Z,54.75
2017-06-18T23:15:09.790Z,54.75
2017-06-18T23:17:34.067Z,54.94
2017-06-18T23:19:58.356Z,54.65
2017-06-18T23:22:23.654Z,55.42
2017-06-18T23:24:49.897Z,55.23
2017-06-18T23:27:05.690Z,55.78
2017-06-18T23:29:31.019Z,55.42
2017-06-18T23:31:55.282Z,56
2017-06-18T23:34:20.591Z,56.56
2017-06-18T23:36:45.805Z,56.74
2017-06-18T23:39:09.995Z,56.46
2017-06-18T23:41:35.198Z,56.48
2017-06-18T23:43:59.378Z,55.62
2017-06-18T23:46:24.561Z,55.62
2017-06-18T23:48:40.272Z,55.71
2017-06-18T23:51:04.560Z,55.71
2017-06-18T23:53:20.339Z,55.33
2017-06-18T23:55:46.580Z,56.2
2017-06-18T23:58:10.862Z,55.9
